sensor_id;sensor_type;location;lat;lon;timestamp;P1;durP1;ratioP1;P2;durP2;ratioP2
66874;SDS011;53784;52.630;4.896;2023-08-31T00:01:48;5.53;;;0.90;;
66874;SDS011;53784;52.630;4.896;2023-08-31T00:04:13;4.60;;;0.90;;
66874;SDS011;53784;52.630;4.896;2023-08-31T00:06:42;4.28;;;0.80;;
66874;SDS011;53784;52.630;4.896;2023-08-31T00:09:09;5.38;;;1.08;;
66874;SDS011;53784;52.630;4.896;2023-08-31T00:11:35;6.35;;;1.08;;
66874;SDS011;53784;52.630;4.896;2023-08-31T00:14:01;7.22;;;1.00;;
66874;SDS011;53784;52.630;4.896;2023-08-31T00:16:26;8.15;;;1.23;;
66874;SDS011;53784;52.630;4.896;2023-08-31T00:18:52;6.88;;;1.00;;
66874;SDS011;53784;52.630;4.896;2023-08-31T00:21:18;4.93;;;1.23;;
66874;SDS011;53784;52.630;4.896;2023-08-31T00:23:43;6.97;;;1.33;;
66874;SDS011;53784;52.630;4.896;2023-08-31T00:26:08;8.02;;;1.20;;
66874;SDS011;53784;52.630;4.896;2023-08-31T00:28:34;27.42;;;2.10;;
66874;SDS011;53784;52.630;4.896;2023-08-31T00:31:02;33.53;;;2.38;;
66874;SDS011;53784;52.630;4.896;2023-08-31T00:33:31;11.48;;;1.65;;
66874;SDS011;53784;52.630;4.896;2023-08-31T00:35:59;5.93;;;1.20;;
66874;SDS011;53784;52.630;4.896;2023-08-31T00:38:26;9.27;;;1.33;;
66874;SDS011;53784;52.630;4.896;2023-08-31T00:40:52;6.50;;;1.10;;
66874;SDS011;53784;52.630;4.896;2023-08-31T00:43:18;6.90;;;1.50;;
66874;SDS011;53784;52.630;4.896;2023-08-31T00:45:44;4.68;;;0.93;;
66874;SDS011;53784;52.630;4.896;2023-08-31T00:48:11;7.45;;;1.10;;
66874;SDS011;53784;52.630;4.896;2023-08-31T00:50:37;6.05;;;1.30;;
66874;SDS011;53784;52.630;4.896;2023-08-31T00:53:02;7.70;;;1.10;;
66874;SDS011;53784;52.630;4.896;2023-08-31T00:55:28;6.68;;;1.13;;
66874;SDS011;53784;52.630;4.896;2023-08-31T00:57:54;7.97;;;1.05;;
66874;SDS011;53784;52.630;4.896;2023-08-31T01:00:20;9.15;;;1.20;;
66874;SDS011;53784;52.630;4.896;2023-08-31T01:05:53;5.45;;;1.10;;
66874;SDS011;53784;52.630;4.896;2023-08-31T01:08:39;6.90;;;1.20;;
66874;SDS011;53784;52.630;4.896;2023-08-31T01:11:14;4.13;;;1.08;;
66874;SDS011;53784;52.630;4.896;2023-08-31T01:13:48;6.68;;;1.30;;
66874;SDS011;53784;52.630;4.896;2023-08-31T01:16:16;5.95;;;1.10;;
66874;SDS011;53784;52.630;4.896;2023-08-31T01:18:42;7.22;;;1.17;;
66874;SDS011;53784;52.630;4.896;2023-08-31T01:21:25;6.78;;;1.20;;
66874;SDS011;53784;52.630;4.896;2023-08-31T01:23:54;7.55;;;1.20;;
66874;SDS011;53784;52.630;4.896;2023-08-31T01:26:20;5.38;;;1.25;;
66874;SDS011;53784;52.630;4.896;2023-08-31T01:28:47;6.50;;;1.45;;
66874;SDS011;53784;52.630;4.896;2023-08-31T01:31:13;6.53;;;1.30;;
66874;SDS011;53784;52.630;4.896;2023-08-31T01:33:39;5.43;;;1.20;;
66874;SDS011;53784;52.630;4.896;2023-08-31T01:36:06;5.65;;;0.98;;
66874;SDS011;53784;52.630;4.896;2023-08-31T01:38:42;7.10;;;1.27;;
66874;SDS011;53784;52.630;4.896;2023-08-31T01:41:10;5.22;;;1.10;;
66874;SDS011;53784;52.630;4.896;2023-08-31T01:43:40;6.40;;;1.20;;
66874;SDS011;53784;52.630;4.896;2023-08-31T01:46:06;3.75;;;1.02;;
66874;SDS011;53784;52.630;4.896;2023-08-31T01:48:37;5.28;;;1.15;;
66874;SDS011;53784;52.630;4.896;2023-08-31T01:51:03;5.57;;;1.10;;
66874;SDS011;53784;52.630;4.896;2023-08-31T01:53:30;6.68;;;1.27;;
66874;SDS011;53784;52.630;4.896;2023-08-31T01:55:55;8.45;;;1.23;;
66874;SDS011;53784;52.630;4.896;2023-08-31T01:58:21;4.97;;;1.20;;
66874;SDS011;53784;52.630;4.896;2023-08-31T02:00:47;4.28;;;0.80;;
66874;SDS011;53784;52.630;4.896;2023-08-31T02:03:13;5.72;;;1.30;;
66874;SDS011;53784;52.630;4.896;2023-08-31T02:05:38;4.57;;;1.02;;
66874;SDS011;53784;52.630;4.896;2023-08-31T02:08:04;5.10;;;1.00;;
66874;SDS011;53784;52.630;4.896;2023-08-31T02:10:29;5.15;;;1.00;;
66874;SDS011;53784;52.630;4.896;2023-08-31T02:12:54;9.15;;;1.65;;
66874;SDS011;53784;52.630;4.896;2023-08-31T02:15:20;7.20;;;0.90;;
66874;SDS011;53784;52.630;4.896;2023-08-31T02:17:45;4.38;;;0.80;;
66874;SDS011;53784;52.630;4.896;2023-08-31T02:20:11;5.82;;;1.00;;
66874;SDS011;53784;52.630;4.896;2023-08-31T02:22:36;4.60;;;0.90;;
66874;SDS011;53784;52.630;4.896;2023-08-31T02:25:02;5.65;;;1.20;;
66874;SDS011;53784;52.630;4.896;2023-08-31T02:27:27;5.30;;;0.90;;
66874;SDS011;53784;52.630;4.896;2023-08-31T02:29:53;8.98;;;1.10;;
66874;SDS011;53784;52.630;4.896;2023-08-31T02:32:18;6.05;;;0.95;;
66874;SDS011;53784;52.630;4.896;2023-08-31T02:34:44;5.53;;;1.33;;
66874;SDS011;53784;52.630;4.896;2023-08-31T02:37:09;4.97;;;0.90;;
66874;SDS011;53784;52.630;4.896;2023-08-31T02:39:35;4.30;;;0.93;;
66874;SDS011;53784;52.630;4.896;2023-08-31T02:42:00;5.35;;;1.02;;
66874;SDS011;53784;52.630;4.896;2023-08-31T02:44:26;6.53;;;0.90;;
66874;SDS011;53784;52.630;4.896;2023-08-31T02:46:51;8.20;;;1.02;;
66874;SDS011;53784;52.630;4.896;2023-08-31T02:49:16;5.35;;;1.00;;
66874;SDS011;53784;52.630;4.896;2023-08-31T02:51:42;4.65;;;0.90;;
66874;SDS011;53784;52.630;4.896;2023-08-31T02:54:07;3.75;;;0.80;;
66874;SDS011;53784;52.630;4.896;2023-08-31T02:56:32;5.10;;;0.90;;
66874;SDS011;53784;52.630;4.896;2023-08-31T02:58:57;3.58;;;0.80;;
66874;SDS011;53784;52.630;4.896;2023-08-31T03:01:23;5.07;;;0.90;;
66874;SDS011;53784;52.630;4.896;2023-08-31T03:03:49;7.50;;;0.95;;
66874;SDS011;53784;52.630;4.896;2023-08-31T03:06:14;4.63;;;1.00;;
66874;SDS011;53784;52.630;4.896;2023-08-31T03:08:40;5.45;;;1.02;;
66874;SDS011;53784;52.630;4.896;2023-08-31T03:11:05;3.67;;;0.88;;
66874;SDS011;53784;52.630;4.896;2023-08-31T03:13:31;4.05;;;0.90;;
66874;SDS011;53784;52.630;4.896;2023-08-31T03:15:57;5.45;;;1.08;;
66874;SDS011;53784;52.630;4.896;2023-08-31T03:18:22;6.03;;;0.98;;
66874;SDS011;53784;52.630;4.896;2023-08-31T03:20:48;9.93;;;1.30;;
66874;SDS011;53784;52.630;4.896;2023-08-31T03:23:13;7.28;;;1.20;;
66874;SDS011;53784;52.630;4.896;2023-08-31T03:25:39;5.82;;;1.10;;
66874;SDS011;53784;52.630;4.896;2023-08-31T03:28:04;6.03;;;1.17;;
66874;SDS011;53784;52.630;4.896;2023-08-31T03:30:30;7.63;;;1.30;;
66874;SDS011;53784;52.630;4.896;2023-08-31T03:32:55;7.22;;;1.10;;
66874;SDS011;53784;52.630;4.896;2023-08-31T03:35:20;6.13;;;1.17;;
66874;SDS011;53784;52.630;4.896;2023-08-31T03:37:51;4.25;;;0.98;;
66874;SDS011;53784;52.630;4.896;2023-08-31T03:40:16;4.00;;;0.70;;
66874;SDS011;53784;52.630;4.896;2023-08-31T03:42:42;2.85;;;0.60;;
66874;SDS011;53784;52.630;4.896;2023-08-31T03:45:07;2.88;;;0.60;;
66874;SDS011;53784;52.630;4.896;2023-08-31T03:47:33;3.50;;;0.70;;
66874;SDS011;53784;52.630;4.896;2023-08-31T03:49:58;2.78;;;0.60;;
66874;SDS011;53784;52.630;4.896;2023-08-31T03:52:23;2.33;;;0.60;;
66874;SDS011;53784;52.630;4.896;2023-08-31T03:54:49;2.40;;;0.68;;
66874;SDS011;53784;52.630;4.896;2023-08-31T03:57:15;4.10;;;0.90;;
66874;SDS011;53784;52.630;4.896;2023-08-31T03:59:41;3.63;;;0.75;;
66874;SDS011;53784;52.630;4.896;2023-08-31T04:02:06;3.00;;;0.80;;
66874;SDS011;53784;52.630;4.896;2023-08-31T04:04:31;5.38;;;1.00;;
66874;SDS011;53784;52.630;4.896;2023-08-31T04:06:57;5.07;;;0.90;;
66874;SDS011;53784;52.630;4.896;2023-08-31T04:09:22;4.18;;;0.95;;
66874;SDS011;53784;52.630;4.896;2023-08-31T04:11:48;3.30;;;0.75;;
66874;SDS011;53784;52.630;4.896;2023-08-31T04:14:13;2.53;;;0.63;;
66874;SDS011;53784;52.630;4.896;2023-08-31T04:16:39;4.18;;;0.70;;
66874;SDS011;53784;52.630;4.896;2023-08-31T04:19:04;4.25;;;0.90;;
66874;SDS011;53784;52.630;4.896;2023-08-31T04:21:29;4.70;;;0.82;;
66874;SDS011;53784;52.630;4.896;2023-08-31T04:23:55;5.70;;;0.90;;
66874;SDS011;53784;52.630;4.896;2023-08-31T04:26:20;6.00;;;1.10;;
66874;SDS011;53784;52.630;4.896;2023-08-31T04:28:45;7.05;;;1.00;;
66874;SDS011;53784;52.630;4.896;2023-08-31T04:31:11;5.63;;;1.08;;
66874;SDS011;53784;52.630;4.896;2023-08-31T04:33:37;7.53;;;1.00;;
66874;SDS011;53784;52.630;4.896;2023-08-31T04:36:03;5.50;;;1.23;;
66874;SDS011;53784;52.630;4.896;2023-08-31T04:38:29;5.43;;;0.90;;
66874;SDS011;53784;52.630;4.896;2023-08-31T04:40:57;7.30;;;0.90;;
66874;SDS011;53784;52.630;4.896;2023-08-31T04:43:24;8.40;;;0.98;;
66874;SDS011;53784;52.630;4.896;2023-08-31T04:45:51;3.13;;;0.70;;
66874;SDS011;53784;52.630;4.896;2023-08-31T04:48:16;3.72;;;0.82;;
66874;SDS011;53784;52.630;4.896;2023-08-31T04:50:42;4.47;;;1.10;;
66874;SDS011;53784;52.630;4.896;2023-08-31T04:53:07;6.90;;;0.95;;
66874;SDS011;53784;52.630;4.896;2023-08-31T04:55:32;4.40;;;0.90;;
66874;SDS011;53784;52.630;4.896;2023-08-31T04:57:58;5.47;;;1.02;;
66874;SDS011;53784;52.630;4.896;2023-08-31T05:00:23;6.97;;;0.98;;
66874;SDS011;53784;52.630;4.896;2023-08-31T05:02:48;8.00;;;1.10;;
66874;SDS011;53784;52.630;4.896;2023-08-31T05:05:14;6.82;;;1.10;;
66874;SDS011;53784;52.630;4.896;2023-08-31T05:07:39;5.95;;;1.02;;
66874;SDS011;53784;52.630;4.896;2023-08-31T05:10:05;6.57;;;1.00;;
66874;SDS011;53784;52.630;4.896;2023-08-31T05:12:31;3.50;;;0.90;;
66874;SDS011;53784;52.630;4.896;2023-08-31T05:14:56;4.13;;;1.00;;
66874;SDS011;53784;52.630;4.896;2023-08-31T05:17:22;3.92;;;1.00;;
66874;SDS011;53784;52.630;4.896;2023-08-31T05:19:47;5.35;;;1.05;;
66874;SDS011;53784;52.630;4.896;2023-08-31T05:22:12;3.58;;;0.90;;
66874;SDS011;53784;52.630;4.896;2023-08-31T05:24:38;5.72;;;1.13;;
66874;SDS011;53784;52.630;4.896;2023-08-31T05:27:03;6.55;;;1.13;;
66874;SDS011;53784;52.630;4.896;2023-08-31T05:29:29;5.28;;;0.93;;
66874;SDS011;53784;52.630;4.896;2023-08-31T05:31:54;7.75;;;1.30;;
66874;SDS011;53784;52.630;4.896;2023-08-31T05:34:24;5.60;;;1.00;;
66874;SDS011;53784;52.630;4.896;2023-08-31T05:36:49;4.90;;;1.08;;
66874;SDS011;53784;52.630;4.896;2023-08-31T05:39:15;4.47;;;0.93;;
66874;SDS011;53784;52.630;4.896;2023-08-31T05:41:41;6.80;;;1.00;;
66874;SDS011;53784;52.630;4.896;2023-08-31T05:44:07;4.03;;;0.88;;
66874;SDS011;53784;52.630;4.896;2023-08-31T05:46:33;3.85;;;0.88;;
66874;SDS011;53784;52.630;4.896;2023-08-31T05:48:58;4.13;;;1.17;;
66874;SDS011;53784;52.630;4.896;2023-08-31T05:51:24;8.43;;;1.17;;
66874;SDS011;53784;52.630;4.896;2023-08-31T05:53:49;5.40;;;0.95;;
66874;SDS011;53784;52.630;4.896;2023-08-31T05:56:14;4.82;;;1.17;;
66874;SDS011;53784;52.630;4.896;2023-08-31T05:58:40;4.57;;;1.00;;
66874;SDS011;53784;52.630;4.896;2023-08-31T06:01:05;5.07;;;0.90;;
66874;SDS011;53784;52.630;4.896;2023-08-31T06:03:31;3.00;;;0.80;;
66874;SDS011;53784;52.630;4.896;2023-08-31T06:05:57;3.63;;;0.90;;
66874;SDS011;53784;52.630;4.896;2023-08-31T06:08:22;2.58;;;0.80;;
66874;SDS011;53784;52.630;4.896;2023-08-31T06:10:48;3.40;;;0.85;;
66874;SDS011;53784;52.630;4.896;2023-08-31T06:13:13;4.35;;;1.00;;
66874;SDS011;53784;52.630;4.896;2023-08-31T06:15:39;4.40;;;0.88;;
66874;SDS011;53784;52.630;4.896;2023-08-31T06:18:05;3.88;;;0.80;;
66874;SDS011;53784;52.630;4.896;2023-08-31T06:20:31;6.25;;;0.95;;
66874;SDS011;53784;52.630;4.896;2023-08-31T06:22:56;4.20;;;0.80;;
66874;SDS011;53784;52.630;4.896;2023-08-31T06:25:21;7.43;;;1.20;;
66874;SDS011;53784;52.630;4.896;2023-08-31T06:27:47;4.60;;;0.80;;
66874;SDS011;53784;52.630;4.896;2023-08-31T06:30:13;2.33;;;0.80;;
66874;SDS011;53784;52.630;4.896;2023-08-31T06:32:42;5.95;;;0.82;;
66874;SDS011;53784;52.630;4.896;2023-08-31T06:35:09;5.32;;;1.00;;
66874;SDS011;53784;52.630;4.896;2023-08-31T06:37:34;3.65;;;1.00;;
66874;SDS011;53784;52.630;4.896;2023-08-31T06:39:59;3.53;;;0.80;;
66874;SDS011;53784;52.630;4.896;2023-08-31T06:42:25;4.95;;;0.90;;
66874;SDS011;53784;52.630;4.896;2023-08-31T06:44:50;4.53;;;0.90;;
66874;SDS011;53784;52.630;4.896;2023-08-31T06:47:16;4.15;;;0.80;;
66874;SDS011;53784;52.630;4.896;2023-08-31T06:49:42;2.55;;;0.88;;
66874;SDS011;53784;52.630;4.896;2023-08-31T06:52:08;6.25;;;1.00;;
66874;SDS011;53784;52.630;4.896;2023-08-31T06:54:33;5.40;;;1.00;;
66874;SDS011;53784;52.630;4.896;2023-08-31T06:56:59;4.18;;;0.93;;
66874;SDS011;53784;52.630;4.896;2023-08-31T06:59:24;5.43;;;0.90;;
66874;SDS011;53784;52.630;4.896;2023-08-31T07:01:49;5.65;;;1.20;;
66874;SDS011;53784;52.630;4.896;2023-08-31T07:04:15;4.30;;;1.38;;
66874;SDS011;53784;52.630;4.896;2023-08-31T07:06:40;4.53;;;0.90;;
66874;SDS011;53784;52.630;4.896;2023-08-31T07:09:05;4.45;;;1.00;;
66874;SDS011;53784;52.630;4.896;2023-08-31T07:11:33;5.32;;;1.00;;
66874;SDS011;53784;52.630;4.896;2023-08-31T07:13:58;4.82;;;1.30;;
66874;SDS011;53784;52.630;4.896;2023-08-31T07:16:24;5.88;;;1.08;;
66874;SDS011;53784;52.630;4.896;2023-08-31T07:18:49;3.63;;;1.00;;
66874;SDS011;53784;52.630;4.896;2023-08-31T07:21:15;7.82;;;1.30;;
66874;SDS011;53784;52.630;4.896;2023-08-31T07:23:40;3.65;;;0.90;;
66874;SDS011;53784;52.630;4.896;2023-08-31T07:26:05;8.13;;;1.02;;
66874;SDS011;53784;52.630;4.896;2023-08-31T07:28:31;4.40;;;1.08;;
66874;SDS011;53784;52.630;4.896;2023-08-31T07:31:06;5.63;;;1.10;;
66874;SDS011;53784;52.630;4.896;2023-08-31T07:33:32;4.53;;;0.90;;
66874;SDS011;53784;52.630;4.896;2023-08-31T07:35:58;3.47;;;0.98;;
66874;SDS011;53784;52.630;4.896;2023-08-31T07:38:24;3.58;;;0.90;;
66874;SDS011;53784;52.630;4.896;2023-08-31T07:40:50;4.07;;;0.98;;
66874;SDS011;53784;52.630;4.896;2023-08-31T07:43:15;3.00;;;0.88;;
66874;SDS011;53784;52.630;4.896;2023-08-31T07:45:40;3.17;;;0.80;;
66874;SDS011;53784;52.630;4.896;2023-08-31T07:48:06;4.38;;;0.88;;
66874;SDS011;53784;52.630;4.896;2023-08-31T07:50:32;3.95;;;1.00;;
66874;SDS011;53784;52.630;4.896;2023-08-31T07:52:59;4.10;;;0.90;;
66874;SDS011;53784;52.630;4.896;2023-08-31T07:55:24;5.45;;;1.10;;
66874;SDS011;53784;52.630;4.896;2023-08-31T07:57:50;3.55;;;1.00;;
66874;SDS011;53784;52.630;4.896;2023-08-31T08:00:15;4.87;;;1.10;;
66874;SDS011;53784;52.630;4.896;2023-08-31T08:02:40;3.78;;;0.90;;
66874;SDS011;53784;52.630;4.896;2023-08-31T08:05:06;3.83;;;1.00;;
66874;SDS011;53784;52.630;4.896;2023-08-31T08:07:31;4.88;;;1.02;;
66874;SDS011;53784;52.630;4.896;2023-08-31T08:09:57;4.10;;;1.08;;
66874;SDS011;53784;52.630;4.896;2023-08-31T08:12:22;4.78;;;1.00;;
66874;SDS011;53784;52.630;4.896;2023-08-31T08:14:48;4.03;;;1.08;;
66874;SDS011;53784;52.630;4.896;2023-08-31T08:17:13;7.30;;;1.47;;
66874;SDS011;53784;52.630;4.896;2023-08-31T08:19:39;8.83;;;2.10;;
66874;SDS011;53784;52.630;4.896;2023-08-31T08:22:04;4.50;;;1.30;;
66874;SDS011;53784;52.630;4.896;2023-08-31T08:24:29;4.00;;;1.20;;
66874;SDS011;53784;52.630;4.896;2023-08-31T08:26:55;7.47;;;1.40;;
66874;SDS011;53784;52.630;4.896;2023-08-31T08:29:20;7.30;;;1.27;;
66874;SDS011;53784;52.630;4.896;2023-08-31T08:31:45;6.47;;;1.17;;
66874;SDS011;53784;52.630;4.896;2023-08-31T08:34:11;5.35;;;1.20;;
66874;SDS011;53784;52.630;4.896;2023-08-31T08:36:36;5.63;;;1.20;;
66874;SDS011;53784;52.630;4.896;2023-08-31T08:39:01;5.53;;;1.20;;
66874;SDS011;53784;52.630;4.896;2023-08-31T08:41:27;4.53;;;1.30;;
66874;SDS011;53784;52.630;4.896;2023-08-31T08:43:54;5.18;;;1.30;;
66874;SDS011;53784;52.630;4.896;2023-08-31T08:46:20;4.05;;;1.20;;
66874;SDS011;53784;52.630;4.896;2023-08-31T08:48:47;2.97;;;1.05;;
66874;SDS011;53784;52.630;4.896;2023-08-31T08:51:12;7.10;;;1.40;;
66874;SDS011;53784;52.630;4.896;2023-08-31T08:53:38;3.97;;;1.40;;
66874;SDS011;53784;52.630;4.896;2023-08-31T08:56:07;4.10;;;1.30;;
66874;SDS011;53784;52.630;4.896;2023-08-31T08:58:33;4.82;;;1.48;;
66874;SDS011;53784;52.630;4.896;2023-08-31T09:00:58;6.33;;;1.30;;
66874;SDS011;53784;52.630;4.896;2023-08-31T09:03:24;4.00;;;1.20;;
66874;SDS011;53784;52.630;4.896;2023-08-31T09:05:50;4.18;;;1.08;;
66874;SDS011;53784;52.630;4.896;2023-08-31T09:08:16;4.97;;;1.10;;
66874;SDS011;53784;52.630;4.896;2023-08-31T09:10:44;6.55;;;1.23;;
66874;SDS011;53784;52.630;4.896;2023-08-31T09:13:11;4.78;;;1.25;;
66874;SDS011;53784;52.630;4.896;2023-08-31T09:15:45;5.80;;;1.40;;
66874;SDS011;53784;52.630;4.896;2023-08-31T09:18:22;7.88;;;1.58;;
66874;SDS011;53784;52.630;4.896;2023-08-31T09:20:55;4.72;;;1.30;;
66874;SDS011;53784;52.630;4.896;2023-08-31T09:25:50;4.32;;;1.50;;
66874;SDS011;53784;52.630;4.896;2023-08-31T09:30:49;4.43;;;1.38;;
66874;SDS011;53784;52.630;4.896;2023-08-31T09:33:17;5.38;;;1.50;;
66874;SDS011;53784;52.630;4.896;2023-08-31T09:35:49;5.43;;;1.65;;
66874;SDS011;53784;52.630;4.896;2023-08-31T09:38:16;4.20;;;1.25;;
66874;SDS011;53784;52.630;4.896;2023-08-31T09:40:41;5.78;;;1.48;;
66874;SDS011;53784;52.630;4.896;2023-08-31T09:43:07;5.78;;;1.42;;
66874;SDS011;53784;52.630;4.896;2023-08-31T09:45:32;4.30;;;1.30;;
66874;SDS011;53784;52.630;4.896;2023-08-31T09:47:59;4.82;;;1.10;;
66874;SDS011;53784;52.630;4.896;2023-08-31T09:50:26;6.57;;;1.20;;
66874;SDS011;53784;52.630;4.896;2023-08-31T09:52:55;6.35;;;1.35;;
66874;SDS011;53784;52.630;4.896;2023-08-31T09:55:21;4.35;;;1.48;;
66874;SDS011;53784;52.630;4.896;2023-08-31T09:57:50;4.55;;;1.42;;
66874;SDS011;53784;52.630;4.896;2023-08-31T10:00:17;6.90;;;1.60;;
66874;SDS011;53784;52.630;4.896;2023-08-31T10:02:43;6.28;;;1.60;;
66874;SDS011;53784;52.630;4.896;2023-08-31T10:05:09;5.30;;;1.42;;
66874;SDS011;53784;52.630;4.896;2023-08-31T10:07:34;5.13;;;1.37;;
66874;SDS011;53784;52.630;4.896;2023-08-31T10:10:00;6.40;;;1.33;;
66874;SDS011;53784;52.630;4.896;2023-08-31T10:12:26;7.07;;;1.50;;
66874;SDS011;53784;52.630;4.896;2023-08-31T10:14:52;4.18;;;1.20;;
66874;SDS011;53784;52.630;4.896;2023-08-31T10:17:18;5.78;;;1.33;;
66874;SDS011;53784;52.630;4.896;2023-08-31T10:19:45;4.68;;;1.15;;
66874;SDS011;53784;52.630;4.896;2023-08-31T10:22:10;5.80;;;1.30;;
66874;SDS011;53784;52.630;4.896;2023-08-31T10:25:09;6.03;;;1.30;;
66874;SDS011;53784;52.630;4.896;2023-08-31T10:27:36;4.88;;;1.23;;
66874;SDS011;53784;52.630;4.896;2023-08-31T10:35:54;6.65;;;1.27;;
66874;SDS011;53784;52.630;4.896;2023-08-31T10:38:28;4.15;;;1.20;;
66874;SDS011;53784;52.630;4.896;2023-08-31T10:41:02;4.85;;;1.48;;
66874;SDS011;53784;52.630;4.896;2023-08-31T10:43:52;5.65;;;1.25;;
66874;SDS011;53784;52.630;4.896;2023-08-31T10:46:24;5.60;;;1.05;;
66874;SDS011;53784;52.630;4.896;2023-08-31T10:51:42;5.05;;;1.20;;
66874;SDS011;53784;52.630;4.896;2023-08-31T10:56:38;4.65;;;1.27;;
66874;SDS011;53784;52.630;4.896;2023-08-31T10:59:16;4.75;;;1.30;;
66874;SDS011;53784;52.630;4.896;2023-08-31T11:01:57;4.88;;;1.30;;
66874;SDS011;53784;52.630;4.896;2023-08-31T11:04:25;4.70;;;1.30;;
66874;SDS011;53784;52.630;4.896;2023-08-31T11:09:43;4.53;;;1.30;;
66874;SDS011;53784;52.630;4.896;2023-08-31T11:12:10;4.75;;;1.38;;
66874;SDS011;53784;52.630;4.896;2023-08-31T11:14:35;5.68;;;1.30;;
66874;SDS011;53784;52.630;4.896;2023-08-31T11:17:01;3.65;;;1.20;;
66874;SDS011;53784;52.630;4.896;2023-08-31T11:19:28;4.72;;;1.33;;
66874;SDS011;53784;52.630;4.896;2023-08-31T11:21:53;5.03;;;1.40;;
66874;SDS011;53784;52.630;4.896;2023-08-31T11:24:19;5.57;;;1.63;;
66874;SDS011;53784;52.630;4.896;2023-08-31T11:26:47;2.90;;;1.23;;
66874;SDS011;53784;52.630;4.896;2023-08-31T11:29:13;4.95;;;1.20;;
66874;SDS011;53784;52.630;4.896;2023-08-31T11:31:38;3.87;;;1.43;;
66874;SDS011;53784;52.630;4.896;2023-08-31T11:34:05;5.38;;;1.60;;
66874;SDS011;53784;52.630;4.896;2023-08-31T11:36:32;5.65;;;1.25;;
66874;SDS011;53784;52.630;4.896;2023-08-31T11:38:57;5.32;;;1.30;;
66874;SDS011;53784;52.630;4.896;2023-08-31T11:41:22;4.90;;;1.57;;
66874;SDS011;53784;52.630;4.896;2023-08-31T11:43:48;5.78;;;1.50;;
66874;SDS011;53784;52.630;4.896;2023-08-31T11:46:14;5.20;;;1.60;;
66874;SDS011;53784;52.630;4.896;2023-08-31T11:48:40;4.47;;;1.33;;
66874;SDS011;53784;52.630;4.896;2023-08-31T11:51:06;5.78;;;1.38;;
66874;SDS011;53784;52.630;4.896;2023-08-31T11:53:31;4.68;;;1.33;;
66874;SDS011;53784;52.630;4.896;2023-08-31T11:55:56;3.83;;;1.33;;
66874;SDS011;53784;52.630;4.896;2023-08-31T11:58:22;3.63;;;1.23;;
66874;SDS011;53784;52.630;4.896;2023-08-31T12:00:56;5.32;;;1.40;;
66874;SDS011;53784;52.630;4.896;2023-08-31T12:03:22;4.75;;;1.27;;
66874;SDS011;53784;52.630;4.896;2023-08-31T12:05:50;4.90;;;1.42;;
66874;SDS011;53784;52.630;4.896;2023-08-31T12:08:23;4.10;;;1.30;;
66874;SDS011;53784;52.630;4.896;2023-08-31T12:10:52;5.85;;;1.35;;
66874;SDS011;53784;52.630;4.896;2023-08-31T12:13:17;5.38;;;1.50;;
66874;SDS011;53784;52.630;4.896;2023-08-31T12:15:42;4.15;;;1.30;;
66874;SDS011;53784;52.630;4.896;2023-08-31T12:18:11;6.38;;;1.50;;
66874;SDS011;53784;52.630;4.896;2023-08-31T12:20:47;5.05;;;1.30;;
66874;SDS011;53784;52.630;4.896;2023-08-31T12:23:16;5.47;;;1.30;;
66874;SDS011;53784;52.630;4.896;2023-08-31T12:25:48;4.55;;;1.20;;
66874;SDS011;53784;52.630;4.896;2023-08-31T12:28:14;7.65;;;1.60;;
66874;SDS011;53784;52.630;4.896;2023-08-31T12:30:45;5.53;;;1.27;;
66874;SDS011;53784;52.630;4.896;2023-08-31T12:33:12;4.97;;;1.35;;
66874;SDS011;53784;52.630;4.896;2023-08-31T12:35:37;6.20;;;1.20;;
66874;SDS011;53784;52.630;4.896;2023-08-31T12:38:03;4.63;;;1.30;;
66874;SDS011;53784;52.630;4.896;2023-08-31T12:40:29;4.65;;;1.33;;
66874;SDS011;53784;52.630;4.896;2023-08-31T12:42:54;5.18;;;1.20;;
66874;SDS011;53784;52.630;4.896;2023-08-31T12:45:19;4.40;;;1.10;;
66874;SDS011;53784;52.630;4.896;2023-08-31T12:47:45;4.65;;;1.05;;
66874;SDS011;53784;52.630;4.896;2023-08-31T12:50:10;4.78;;;1.25;;
66874;SDS011;53784;52.630;4.896;2023-08-31T12:52:35;6.18;;;1.40;;
66874;SDS011;53784;52.630;4.896;2023-08-31T12:55:01;6.40;;;1.20;;
66874;SDS011;53784;52.630;4.896;2023-08-31T12:57:26;5.38;;;1.27;;
66874;SDS011;53784;52.630;4.896;2023-08-31T12:59:52;5.70;;;1.25;;
66874;SDS011;53784;52.630;4.896;2023-08-31T13:02:17;5.20;;;1.23;;
66874;SDS011;53784;52.630;4.896;2023-08-31T13:04:44;3.72;;;1.30;;
66874;SDS011;53784;52.630;4.896;2023-08-31T13:07:10;5.45;;;1.20;;
66874;SDS011;53784;52.630;4.896;2023-08-31T13:09:35;5.68;;;1.33;;
66874;SDS011;53784;52.630;4.896;2023-08-31T13:12:00;6.55;;;1.23;;
66874;SDS011;53784;52.630;4.896;2023-08-31T13:14:26;5.28;;;1.17;;
66874;SDS011;53784;52.630;4.896;2023-08-31T13:16:51;5.47;;;1.30;;
66874;SDS011;53784;52.630;4.896;2023-08-31T13:19:16;6.15;;;1.33;;
66874;SDS011;53784;52.630;4.896;2023-08-31T13:21:42;5.32;;;1.42;;
66874;SDS011;53784;52.630;4.896;2023-08-31T13:24:07;5.85;;;1.20;;
66874;SDS011;53784;52.630;4.896;2023-08-31T13:26:33;6.30;;;1.33;;
66874;SDS011;53784;52.630;4.896;2023-08-31T13:28:58;5.07;;;1.20;;
66874;SDS011;53784;52.630;4.896;2023-08-31T13:31:23;6.07;;;1.30;;
66874;SDS011;53784;52.630;4.896;2023-08-31T13:33:49;4.20;;;0.90;;
66874;SDS011;53784;52.630;4.896;2023-08-31T13:36:14;4.25;;;1.15;;
66874;SDS011;53784;52.630;4.896;2023-08-31T13:38:40;5.70;;;1.27;;
66874;SDS011;53784;52.630;4.896;2023-08-31T13:41:05;6.07;;;1.20;;
66874;SDS011;53784;52.630;4.896;2023-08-31T13:43:30;4.47;;;1.10;;
66874;SDS011;53784;52.630;4.896;2023-08-31T13:45:56;3.67;;;0.98;;
66874;SDS011;53784;52.630;4.896;2023-08-31T13:48:21;5.57;;;1.00;;
66874;SDS011;53784;52.630;4.896;2023-08-31T13:50:47;4.90;;;0.95;;
66874;SDS011;53784;52.630;4.896;2023-08-31T13:53:13;4.50;;;0.90;;
66874;SDS011;53784;52.630;4.896;2023-08-31T13:55:38;4.82;;;0.90;;
66874;SDS011;53784;52.630;4.896;2023-08-31T13:58:04;6.20;;;1.10;;
66874;SDS011;53784;52.630;4.896;2023-08-31T14:00:33;5.00;;;1.10;;
66874;SDS011;53784;52.630;4.896;2023-08-31T14:02:58;5.03;;;1.00;;
66874;SDS011;53784;52.630;4.896;2023-08-31T14:05:27;4.38;;;0.98;;
66874;SDS011;53784;52.630;4.896;2023-08-31T14:07:53;5.07;;;1.17;;
66874;SDS011;53784;52.630;4.896;2023-08-31T14:10:18;5.18;;;1.05;;
66874;SDS011;53784;52.630;4.896;2023-08-31T14:12:45;4.30;;;1.00;;
66874;SDS011;53784;52.630;4.896;2023-08-31T14:15:11;4.55;;;0.90;;
66874;SDS011;53784;52.630;4.896;2023-08-31T14:17:36;4.00;;;1.00;;
66874;SDS011;53784;52.630;4.896;2023-08-31T14:20:02;3.85;;;0.95;;
66874;SDS011;53784;52.630;4.896;2023-08-31T14:22:31;5.32;;;1.02;;
66874;SDS011;53784;52.630;4.896;2023-08-31T14:24:56;3.40;;;0.98;;
66874;SDS011;53784;52.630;4.896;2023-08-31T14:27:22;4.93;;;1.02;;
66874;SDS011;53784;52.630;4.896;2023-08-31T14:29:48;4.43;;;1.13;;
66874;SDS011;53784;52.630;4.896;2023-08-31T14:32:13;5.47;;;1.02;;
66874;SDS011;53784;52.630;4.896;2023-08-31T14:34:39;4.78;;;1.17;;
66874;SDS011;53784;52.630;4.896;2023-08-31T14:37:04;5.07;;;0.93;;
66874;SDS011;53784;52.630;4.896;2023-08-31T14:39:29;3.90;;;1.10;;
66874;SDS011;53784;52.630;4.896;2023-08-31T14:41:58;3.65;;;0.90;;
66874;SDS011;53784;52.630;4.896;2023-08-31T14:44:24;4.35;;;1.05;;
66874;SDS011;53784;52.630;4.896;2023-08-31T14:46:49;4.15;;;1.00;;
66874;SDS011;53784;52.630;4.896;2023-08-31T14:49:15;3.67;;;1.00;;
66874;SDS011;53784;52.630;4.896;2023-08-31T14:51:40;3.80;;;1.00;;
66874;SDS011;53784;52.630;4.896;2023-08-31T14:54:07;2.75;;;0.95;;
66874;SDS011;53784;52.630;4.896;2023-08-31T14:56:32;3.92;;;0.95;;
66874;SDS011;53784;52.630;4.896;2023-08-31T14:58:57;4.50;;;0.90;;
66874;SDS011;53784;52.630;4.896;2023-08-31T15:01:22;2.85;;;0.98;;
66874;SDS011;53784;52.630;4.896;2023-08-31T15:03:49;4.18;;;1.13;;
66874;SDS011;53784;52.630;4.896;2023-08-31T15:06:15;3.42;;;0.95;;